createdAt,value
2023-12-09T00:01:45.947Z,100814.66
2023-12-09T00:04:48.774Z,100814.66
2023-12-09T00:07:51.580Z,100814.84
2023-12-09T00:10:54.621Z,100816.13
2023-12-09T00:14:04.689Z,100811.81
2023-12-09T00:17:08.883Z,100811.03
2023-12-09T00:20:12.752Z,100812.16
2023-12-09T00:23:18.111Z,100816.38
2023-12-09T00:26:21.255Z,100805.59
2023-12-09T00:29:24.129Z,100803.41
2023-12-09T00:32:27.617Z,100811.19
2023-12-09T00:35:30.976Z,100809.72
2023-12-09T00:38:33.825Z,100819.69
2023-12-09T00:41:36.987Z,100811.09
2023-12-09T00:44:40.287Z,100812.34
2023-12-09T00:47:44.472Z,100813.88
2023-12-09T00:50:47.495Z,100810.50
2023-12-09T00:53:50.727Z,100808.16
2023-12-09T00:56:53.871Z,100812.50
2023-12-09T00:59:57.043Z,100813.97
2023-12-09T01:02:59.905Z,100811.81
2023-12-09T01:06:06.406Z,100810.94
2023-12-09T01:09:09.491Z,100806.88
2023-12-09T01:12:12.292Z,100819.00
2023-12-09T01:15:15.534Z,100807.22
2023-12-09T01:18:18.555Z,100811.72
2023-12-09T01:21:23.449Z,100809.63
2023-12-09T01:24:26.534Z,100810.84
2023-12-09T01:27:30.417Z,100807.59
2023-12-09T01:30:33.677Z,100807.59
2023-12-09T01:33:38.545Z,100811.63
2023-12-09T01:36:41.729Z,100805.59
2023-12-09T01:39:44.911Z,100810.09
2023-12-09T01:42:49.708Z,100813.81
2023-12-09T01:45:56.871Z,100800.84
2023-12-09T01:49:00.040Z,100805.66
2023-12-09T01:52:03.233Z,100802.81
2023-12-09T01:55:07.874Z,100798.50
2023-12-09T01:58:11.904Z,100797.28
2023-12-09T02:01:15.281Z,100800.97
2023-12-09T02:04:20.140Z,100798.50
2023-12-09T02:07:23.273Z,100809.97
2023-12-09T02:10:28.770Z,100806.28
2023-12-09T02:13:48.577Z,100804.56
2023-12-09T02:17:09.482Z,100812.16
2023-12-09T02:20:12.885Z,100807.59
2023-12-09T02:23:16.115Z,100807.47
2023-12-09T02:26:26.566Z,100803.66
2023-12-09T02:29:34.363Z,100806.44
2023-12-09T02:32:40.009Z,100804.09
2023-12-09T02:35:45.344Z,100805.66
2023-12-09T02:38:48.639Z,100807.66
2023-12-09T02:41:54.070Z,100804.03
2023-12-09T02:44:57.715Z,100813.91
2023-12-09T02:48:00.790Z,100808.34
2023-12-09T02:51:04.413Z,100816.81
2023-12-09T02:54:07.562Z,100811.47
2023-12-09T02:57:10.759Z,100822.97
2023-12-09T03:00:14.421Z,100826.34
2023-12-09T03:03:17.588Z,100823.31
2023-12-09T03:06:20.857Z,100816.81
2023-12-09T03:09:23.974Z,100821.00
2023-12-09T03:12:27.494Z,100817.97
2023-12-09T03:15:31.717Z,100819.50
2023-12-09T03:18:34.792Z,100821.16
2023-12-09T03:21:38.008Z,100815.09
2023-12-09T03:24:44.179Z,100808.63
2023-12-09T03:27:47.241Z,100815.00
2023-12-09T03:30:50.066Z,100819.06
2023-12-09T03:33:52.946Z,100819.34
2023-12-09T03:36:55.809Z,100821.91
2023-12-09T03:39:59.349Z,100824.94
2023-12-09T03:43:02.344Z,100829.63
2023-12-09T03:46:05.464Z,100833.00
2023-12-09T03:49:08.801Z,100831.97
2023-12-09T03:52:11.957Z,100828.75
2023-12-09T03:55:16.258Z,100824.16
2023-12-09T03:58:21.806Z,100826.50
2023-12-09T04:01:26.066Z,100830.41
2023-12-09T04:04:30.359Z,100825.63
2023-12-09T04:07:33.209Z,100819.13
2023-12-09T04:10:35.986Z,100827.88
2023-12-09T04:14:54.656Z,100825.72
2023-12-09T04:22:40.765Z,100831.78
2023-12-09T04:25:43.937Z,100835.22
2023-12-09T04:28:48.013Z,100832.81
2023-12-09T04:31:51.182Z,100832.47
2023-12-09T04:34:56.585Z,100835.72
2023-12-09T04:37:59.716Z,100833.06
2023-12-09T04:41:02.940Z,100836.88
2023-12-09T04:44:06.210Z,100827.25
2023-12-09T04:47:09.313Z,100834.59
2023-12-09T04:50:12.549Z,100837.97
2023-12-09T04:53:15.516Z,100837.53
2023-12-09T04:56:19.149Z,100831.97
2023-12-09T04:59:22.055Z,100840.13
2023-12-09T05:02:25.539Z,100834.41
2023-12-09T05:05:28.526Z,100839.00
2023-12-09T05:08:31.653Z,100833.78
2023-12-09T05:11:35.523Z,100833.88
2023-12-09T05:14:38.651Z,100837.00
2023-12-09T05:17:41.922Z,100839.16
2023-12-09T05:20:45.622Z,100846.13
2023-12-09T05:23:48.746Z,100854.72
2023-12-09T05:26:51.799Z,100855.63
2023-12-09T05:29:55.878Z,100860.53
2023-12-09T05:32:59.221Z,100862.41
2023-12-09T05:36:02.469Z,100863.22
2023-12-09T05:39:08.184Z,100865.78
2023-12-09T05:42:11.206Z,100860.41
2023-12-09T05:45:14.483Z,100855.06
2023-12-09T05:48:17.763Z,100865.03
2023-12-09T05:51:20.782Z,100867.66
2023-12-09T05:54:24.421Z,100857.03
2023-12-09T05:57:27.730Z,100853.81
2023-12-09T06:00:31.724Z,100860.75
2023-12-09T06:03:35.644Z,100854.94
2023-12-09T06:06:39.194Z,100853.84
2023-12-09T06:09:42.492Z,100858.28
2023-12-09T06:12:45.565Z,100847.84
2023-12-09T06:15:50.964Z,100850.06
2023-12-09T06:18:54.263Z,100854.63
2023-12-09T06:21:57.425Z,100853.84
2023-12-09T06:25:00.317Z,100860.97
2023-12-09T06:28:03.115Z,100859.66
2023-12-09T06:31:06.369Z,100868.47
2023-12-09T06:34:10.236Z,100872.81
2023-12-09T06:37:13.517Z,100869.59
2023-12-09T06:40:16.424Z,100865.31
2023-12-09T06:43:19.880Z,100862.53
2023-12-09T06:46:23.125Z,100857.63
2023-12-09T06:49:26.456Z,100877.59
2023-12-09T06:52:30.354Z,100882.06
2023-12-09T06:55:33.484Z,100884.81
2023-12-09T06:58:37.642Z,100895.31
2023-12-09T07:01:40.644Z,100885.38
2023-12-09T07:04:44.262Z,100879.78
2023-12-09T07:07:50.022Z,100892.25
2023-12-09T07:10:53.204Z,100889.69
2023-12-09T07:13:56.094Z,100887.00
2023-12-09T07:16:59.155Z,100884.31
2023-12-09T07:20:02.553Z,100890.88
2023-12-09T07:23:06.270Z,100883.81
2023-12-09T07:26:09.400Z,100876.06
2023-12-09T07:29:12.576Z,100872.91
2023-12-09T07:32:15.968Z,100881.06
2023-12-09T07:35:19.368Z,100880.56
2023-12-09T07:38:22.586Z,100892.47
2023-12-09T07:41:25.730Z,100894.09
2023-12-09T07:44:28.643Z,100885.91
2023-12-09T07:47:31.652Z,100889.44
2023-12-09T07:50:36.198Z,100894.44
2023-12-09T07:53:39.360Z,100897.31
2023-12-09T07:56:42.346Z,100896.97
2023-12-09T07:59:45.502Z,100905.19
2023-12-09T08:02:48.696Z,100907.44
2023-12-09T08:05:52.046Z,100899.19
2023-12-09T08:08:54.839Z,100895.41
2023-12-09T08:11:57.757Z,100903.72
2023-12-09T08:15:00.741Z,100903.25
2023-12-09T08:18:05.235Z,100901.25
2023-12-09T08:21:08.444Z,100894.53
2023-12-09T08:24:11.603Z,100905.25
2023-12-09T08:30:41.981Z,100901.06
2023-12-09T08:33:45.133Z,100899.66
2023-12-09T08:36:48.376Z,100892.13
2023-12-09T08:39:51.266Z,100893.75
2023-12-09T08:42:54.220Z,100893.41
2023-12-09T08:45:57.342Z,100894.09
2023-12-09T08:49:00.736Z,100895.66
2023-12-09T08:52:04.161Z,100886.25
2023-12-09T08:55:08.240Z,100894.31
2023-12-09T08:58:11.356Z,100897.00
2023-12-09T09:01:14.594Z,100895.69
2023-12-09T09:04:19.627Z,100899.13
2023-12-09T09:07:22.983Z,100897.25
2023-12-09T09:10:26.084Z,100898.38
2023-12-09T09:14:48.158Z,100892.91
2023-12-09T09:18:16.652Z,100890.41
2023-12-09T09:21:19.877Z,100881.31
2023-12-09T09:24:25.945Z,100884.78
2023-12-09T09:27:56.499Z,100877.94
2023-12-09T09:30:59.377Z,100885.31
2023-12-09T09:34:03.160Z,100886.44
2023-12-09T09:37:06.278Z,100878.53
2023-12-09T09:40:09.580Z,100863.81
2023-12-09T09:43:25.276Z,100862.63
2023-12-09T09:46:29.436Z,100866.50
2023-12-09T09:49:35.988Z,100855.00
2023-12-09T09:52:41.999Z,100851.97
2023-12-09T09:55:46.848Z,100854.75
2023-12-09T09:58:50.124Z,100853.44
2023-12-09T10:01:53.508Z,100839.66
2023-12-09T10:04:59.592Z,100841.28
2023-12-09T10:08:02.619Z,100839.56
2023-12-09T10:11:06.017Z,100824.25
2023-12-09T10:14:09.003Z,100827.81
2023-12-09T10:17:12.408Z,100824.59
2023-12-09T10:20:16.539Z,100820.47
2023-12-09T10:23:20.832Z,100810.78
2023-12-09T10:26:24.021Z,100816.09
2023-12-09T10:29:26.867Z,100812.19
2023-12-09T10:32:31.222Z,100808.94
2023-12-09T10:35:35.621Z,100815.47
2023-12-09T10:38:44.822Z,100813.09
2023-12-09T10:41:48.391Z,100813.03
2023-12-09T10:44:51.554Z,100814.47
2023-12-09T10:47:55.312Z,100820.09
2023-12-09T10:50:59.414Z,100815.34
2023-12-09T10:54:02.906Z,100811.03
2023-12-09T10:57:06.336Z,100811.28
2023-12-09T11:00:16.066Z,100809.13
2023-12-09T11:03:22.062Z,100813.97
2023-12-09T11:06:29.064Z,100815.97
2023-12-09T11:09:33.529Z,100821.50
2023-12-09T11:12:36.983Z,100822.88
2023-12-09T11:15:41.420Z,100820.19
2023-12-09T11:18:52.843Z,100819.03
2023-12-09T11:21:56.610Z,100804.41
2023-12-09T11:24:59.482Z,100797.44
2023-12-09T11:28:04.501Z,100789.63
2023-12-09T11:31:08.281Z,100786.66
2023-12-09T11:34:16.416Z,100781.16
2023-12-09T11:37:19.854Z,100780.16
2023-12-09T11:40:22.963Z,100782.31
2023-12-09T11:43:25.870Z,100778.25
2023-12-09T11:46:30.748Z,100780.81
2023-12-09T11:49:34.897Z,100784.06
2023-12-09T11:52:37.748Z,100779.44
2023-12-09T11:55:41.792Z,100762.56
2023-12-09T11:58:44.587Z,100763.28
2023-12-09T12:01:47.784Z,100766.16
2023-12-09T12:04:50.877Z,100764.47
2023-12-09T12:07:54.099Z,100759.09
2023-12-09T12:10:57.289Z,100744.06
2023-12-09T12:14:01.382Z,100751.97
2023-12-09T12:17:04.791Z,100737.00
2023-12-09T12:20:10.984Z,100739.50
2023-12-09T12:23:23.373Z,100734.06
2023-12-09T12:26:33.281Z,100743.41
2023-12-09T12:29:42.343Z,100735.25
2023-12-09T12:32:56.675Z,100731.66
2023-12-09T12:36:00.910Z,100729.72
2023-12-09T12:39:04.491Z,100728.19
2023-12-09T12:42:09.647Z,100722.75
2023-12-09T12:45:19.794Z,100718.44
2023-12-09T12:48:22.940Z,100718.22
2023-12-09T12:51:27.173Z,100726.16
2023-12-09T12:54:30.766Z,100724.75
2023-12-09T12:57:33.826Z,100716.38
2023-12-09T13:00:36.939Z,100707.25
2023-12-09T13:03:40.136Z,100715.53
2023-12-09T13:06:43.513Z,100716.31
2023-12-09T13:09:46.597Z,100717.03
2023-12-09T13:12:49.718Z,100717.13
2023-12-09T13:15:52.674Z,100696.59
2023-12-09T13:18:55.844Z,100701.84
2023-12-09T13:21:59.374Z,100704.81
2023-12-09T13:25:06.362Z,100701.34
2023-12-09T13:28:10.214Z,100697.59
2023-12-09T13:31:15.181Z,100694.91
2023-12-09T13:34:18.239Z,100707.56
2023-12-09T13:37:21.721Z,100698.72
2023-12-09T13:40:25.001Z,100704.81
2023-12-09T13:43:28.405Z,100710.03
2023-12-09T13:46:31.362Z,100708.03
2023-12-09T13:49:34.913Z,100709.69
2023-12-09T13:52:38.924Z,100711.59
2023-12-09T13:55:42.201Z,100712.28
2023-12-09T13:58:47.966Z,100707.00
2023-12-09T14:01:51.001Z,100703.19
2023-12-09T14:04:54.145Z,100701.91
2023-12-09T14:07:57.413Z,100695.41
2023-12-09T14:11:01.519Z,100687.84
2023-12-09T14:14:04.730Z,100692.78
2023-12-09T14:17:10.551Z,100690.09
2023-12-09T14:20:16.656Z,100691.53
2023-12-09T14:23:21.225Z,100687.22
2023-12-09T14:26:25.213Z,100685.00
2023-12-09T14:29:28.622Z,100673.78
2023-12-09T14:32:32.026Z,100665.22
2023-12-09T14:35:35.160Z,100658.53
2023-12-09T14:38:38.244Z,100663.41
2023-12-09T14:41:41.726Z,100658.47
2023-12-09T14:44:44.861Z,100655.25
2023-12-09T14:47:54.353Z,100655.13
2023-12-09T14:51:05.004Z,100649.06
2023-12-09T14:54:09.055Z,100641.75
2023-12-09T14:57:12.505Z,100640.94
2023-12-09T15:00:17.041Z,100632.03
2023-12-09T15:03:20.399Z,100631.44
2023-12-09T15:06:23.700Z,100635.13
2023-12-09T15:09:26.956Z,100635.50
2023-12-09T15:12:30.783Z,100633.16
2023-12-09T15:15:33.988Z,100631.78
2023-12-09T15:18:37.361Z,100631.53
2023-12-09T15:22:05.806Z,100637.09
2023-12-09T15:25:10.598Z,100631.44
2023-12-09T15:28:14.010Z,100630.09
2023-12-09T15:31:16.908Z,100626.16
2023-12-09T15:34:19.902Z,100631.28
2023-12-09T15:37:22.966Z,100624.19
2023-12-09T15:40:25.868Z,100632.00
2023-12-09T15:43:28.839Z,100627.41
2023-12-09T15:46:31.836Z,100638.31
2023-12-09T15:49:34.865Z,100627.63
2023-12-09T15:52:37.873Z,100614.88
2023-12-09T15:55:40.819Z,100618.25
2023-12-09T15:58:43.836Z,100602.44
2023-12-09T16:01:48.156Z,100604.75
2023-12-09T16:04:51.408Z,100605.47
2023-12-09T16:07:54.672Z,100609.88
2023-12-09T16:10:57.616Z,100615.75
2023-12-09T16:14:00.449Z,100609.88
2023-12-09T16:17:03.897Z,100618.53
2023-12-09T16:20:07.451Z,100614.22
2023-12-09T16:23:13.274Z,100614.56
2023-12-09T16:26:16.570Z,100607.91
2023-12-09T16:29:19.461Z,100608.34
2023-12-09T16:32:22.987Z,100610.00
2023-12-09T16:35:27.185Z,100603.34
2023-12-09T16:38:30.037Z,100595.66
2023-12-09T16:41:33.711Z,100595.91
2023-12-09T16:44:37.049Z,100593.31
2023-12-09T16:47:41.221Z,100585.28
2023-12-09T16:50:44.671Z,100592.78
2023-12-09T16:53:48.223Z,100588.72
2023-12-09T16:56:52.012Z,100584.16
2023-12-09T16:59:56.483Z,100590.19
2023-12-09T17:02:59.536Z,100592.94
2023-12-09T17:06:02.525Z,100597.09
2023-12-09T17:09:05.879Z,100588.25
2023-12-09T17:12:09.714Z,100592.75
2023-12-09T17:15:19.478Z,100589.91
2023-12-09T17:18:23.093Z,100585.06
2023-12-09T17:21:26.332Z,100584.56
2023-12-09T17:24:31.911Z,100587.34
2023-12-09T17:27:35.309Z,100573.94
2023-12-09T17:30:38.904Z,100581.88
2023-12-09T17:33:42.766Z,100569.28
2023-12-09T17:36:46.004Z,100560.97
2023-12-09T17:39:49.063Z,100564.28
2023-12-09T17:42:52.325Z,100563.94
2023-12-09T17:45:55.463Z,100577.13
2023-12-09T17:48:58.821Z,100580.59
2023-12-09T17:52:05.304Z,100576.72
2023-12-09T17:55:08.576Z,100563.25
2023-12-09T17:58:11.789Z,100567.56
2023-12-09T18:01:14.812Z,100569.09
2023-12-09T18:04:18.172Z,100554.88
2023-12-09T18:07:22.602Z,100557.81
2023-12-09T18:10:25.896Z,100555.47
2023-12-09T18:13:29.090Z,100556.69
2023-12-09T18:16:32.814Z,100552.19
2023-12-09T18:19:35.959Z,100539.94
2023-12-09T18:22:42.200Z,100531.47
2023-12-09T18:25:45.406Z,100521.34
2023-12-09T18:28:48.707Z,100524.28
2023-12-09T18:31:51.638Z,100510.41
2023-12-09T18:34:58.950Z,100512.63
2023-12-09T18:38:03.680Z,100505.97
2023-12-09T18:41:07.114Z,100499.00
2023-12-09T18:44:10.048Z,100499.06
2023-12-09T18:47:13.052Z,100500.88
2023-12-09T18:50:16.053Z,100502.19
2023-12-09T18:53:19.367Z,100492.28
2023-12-09T18:56:25.555Z,100483.44
2023-12-09T18:59:28.908Z,100483.00
2023-12-09T19:02:33.251Z,100474.31
2023-12-09T19:05:40.315Z,100460.81
2023-12-09T19:08:43.754Z,100461.72
2023-12-09T19:11:47.296Z,100437.78
2023-12-09T19:14:50.640Z,100442.09
2023-12-09T19:17:53.972Z,100428.94
2023-12-09T19:21:00.484Z,100422.75
2023-12-09T19:24:04.521Z,100423.00
2023-12-09T19:27:10.643Z,100416.13
2023-12-09T19:30:15.292Z,100400.66
2023-12-09T19:33:18.410Z,100399.56
2023-12-09T19:36:21.511Z,100395.84
2023-12-09T19:39:24.843Z,100397.03
2023-12-09T19:42:28.081Z,100399.38
2023-12-09T19:45:31.764Z,100401.53
2023-12-09T19:48:35.900Z,100398.03
2023-12-09T19:51:38.959Z,100398.09
2023-12-09T19:54:41.990Z,100401.03
2023-12-09T19:57:45.889Z,100394.28
2023-12-09T20:00:49.872Z,100375.72
2023-12-09T20:03:53.182Z,100367.13
2023-12-09T20:06:57.394Z,100370.13
2023-12-09T20:10:01.300Z,100364.88
2023-12-09T20:13:04.394Z,100369.34
2023-12-09T20:16:07.816Z,100358.66
2023-12-09T20:19:11.161Z,100347.88
2023-12-09T20:22:15.848Z,100345.28
2023-12-09T20:25:19.034Z,100330.22
2023-12-09T20:28:22.225Z,100318.81
2023-12-09T20:31:25.556Z,100308.63
2023-12-09T20:34:28.885Z,100310.09
2023-12-09T20:37:31.871Z,100315.78
2023-12-09T20:40:35.073Z,100307.06
2023-12-09T20:43:38.205Z,100309.31
2023-12-09T20:46:42.279Z,100309.75
2023-12-09T20:49:45.597Z,100309.13
2023-12-09T20:52:48.638Z,100317.44
2023-12-09T20:55:51.739Z,100312.44
2023-12-09T20:58:54.589Z,100317.91
2023-12-09T21:01:58.311Z,100304.09
2023-12-09T21:05:03.998Z,100308.34
2023-12-09T21:08:09.682Z,100294.03
2023-12-09T21:11:14.780Z,100280.31
2023-12-09T21:14:18.101Z,100277.81
2023-12-09T21:17:21.054Z,100276.94
2023-12-09T21:20:24.209Z,100287.09
2023-12-09T21:23:27.067Z,100281.06
2023-12-09T21:26:30.374Z,100287.53
2023-12-09T21:29:33.289Z,100277.69
2023-12-09T21:32:36.198Z,100275.84
2023-12-09T21:35:39.242Z,100276.97
2023-12-09T21:38:42.951Z,100265.69
2023-12-09T21:41:46.046Z,100276.97
2023-12-09T21:44:50.638Z,100273.97
2023-12-09T21:47:55.718Z,100268.78
2023-12-09T21:51:00.093Z,100265.13
2023-12-09T21:54:02.937Z,100252.06
2023-12-09T21:57:06.132Z,100252.69
2023-12-09T22:00:09.615Z,100242.19
2023-12-09T22:03:12.966Z,100234.16
2023-12-09T22:06:16.504Z,100238.38
2023-12-09T22:09:19.437Z,100220.53
2023-12-09T22:12:22.502Z,100218.97
2023-12-09T22:15:26.349Z,100221.22
2023-12-09T22:18:29.801Z,100204.38
2023-12-09T22:21:33.068Z,100192.56
2023-12-09T22:24:37.099Z,100178.75
2023-12-09T22:27:40.328Z,100162.72
2023-12-09T22:30:43.199Z,100172.50
2023-12-09T22:33:50.968Z,100171.44
2023-12-09T22:36:54.092Z,100173.34
2023-12-09T22:39:58.950Z,100159.97
2023-12-09T22:43:02.222Z,100156.72
2023-12-09T22:46:05.796Z,100162.91
2023-12-09T22:49:09.029Z,100166.72
2023-12-09T22:52:12.311Z,100157.72
2023-12-09T22:55:15.294Z,100152.75
2023-12-09T22:58:18.421Z,100139.69
2023-12-09T23:01:23.669Z,100118.28
2023-12-09T23:04:27.240Z,100120.75
2023-12-09T23:07:30.441Z,100116.88
2023-12-09T23:10:33.732Z,100124.97
2023-12-09T23:13:36.775Z,100120.31
2023-12-09T23:16:39.682Z,100112.56
2023-12-09T23:19:46.344Z,100113.50
2023-12-09T23:22:49.360Z,100099.63
2023-12-09T23:25:52.697Z,100096.53
2023-12-09T23:28:55.845Z,100102.25
2023-12-09T23:31:58.778Z,100096.59
2023-12-09T23:35:01.723Z,100086.34
2023-12-09T23:38:06.501Z,100083.88
2023-12-09T23:41:16.881Z,100078.88
2023-12-09T23:44:22.133Z,100085.28
2023-12-09T23:47:25.173Z,100096.31
2023-12-09T23:50:28.419Z,100111.03
2023-12-09T23:53:31.537Z,100106.53
2023-12-09T23:56:34.757Z,100093.16
2023-12-09T23:59:37.795Z,100080.50
